createdAt,value
2019-05-15T00:00:55.711Z,8.04
2019-05-15T00:01:58.454Z,8.12
2019-05-15T00:02:55.543Z,8.10
2019-05-15T00:03:55.452Z,8.22
2019-05-15T00:04:55.421Z,8.10
2019-05-15T00:05:55.276Z,8.20
2019-05-15T00:06:55.212Z,8.17
2019-05-15T00:07:55.130Z,8.21
2019-05-15T00:08:55.028Z,8.14
2019-05-15T00:09:55.042Z,8.14
2019-05-15T00:10:54.859Z,8.17
2019-05-15T00:11:54.886Z,8.25
2019-05-15T00:12:54.688Z,8.31
2019-05-15T00:13:54.604Z,8.29
2019-05-15T00:14:54.537Z,8.18
2019-05-15T00:15:54.466Z,8.24
2019-05-15T00:16:54.357Z,8.20
2019-05-15T00:17:54.381Z,8.24
2019-05-15T00:18:54.188Z,8.17
2019-05-15T00:19:54.100Z,8.21
2019-05-15T00:20:54.096Z,8.21
2019-05-15T00:21:53.955Z,8.29
2019-05-15T00:22:53.904Z,8.28
2019-05-15T00:23:53.760Z,8.21
2019-05-15T00:25:00.678Z,8.22
2019-05-15T00:25:53.586Z,8.25
2019-05-15T00:26:53.527Z,8.24
2019-05-15T00:27:53.433Z,8.24
2019-05-15T00:28:53.433Z,8.18
2019-05-15T00:29:53.252Z,8.10
2019-05-15T00:30:55.190Z,8.07
2019-05-15T00:31:53.077Z,8.12
2019-05-15T00:32:53.083Z,8.14
2019-05-15T00:33:52.928Z,8.13
2019-05-15T00:34:52.827Z,8.17
2019-05-15T00:35:52.766Z,8.10
2019-05-15T00:36:52.655Z,8.17
2019-05-15T00:37:52.585Z,8.17
2019-05-15T00:38:52.582Z,8.07
2019-05-15T00:39:52.412Z,8.18
2019-05-15T00:40:52.328Z,8.20
2019-05-15T00:41:54.857Z,8.21
2019-05-15T00:42:52.163Z,8.20
2019-05-15T00:43:52.070Z,8.20
2019-05-15T00:44:52.009Z,8.17
2019-05-15T00:45:51.902Z,8.24
2019-05-15T00:46:51.924Z,8.25
2019-05-15T00:47:51.749Z,8.25
2019-05-15T00:48:52.755Z,8.21
2019-05-15T00:49:51.559Z,8.25
2019-05-15T00:50:51.538Z,8.24
2019-05-15T00:51:51.382Z,8.21
2019-05-15T00:52:51.380Z,8.20
2019-05-15T00:53:51.222Z,8.25
2019-05-15T00:54:51.134Z,8.17
2019-05-15T00:55:51.163Z,8.17
2019-05-15T00:56:50.964Z,8.09
2019-05-15T00:57:50.897Z,8.13
2019-05-15T00:58:50.879Z,8.09
2019-05-15T00:59:50.707Z,8.07
2019-05-15T01:00:50.626Z,8.13
2019-05-15T01:01:50.540Z,8.14
2019-05-15T01:02:50.534Z,8.10
2019-05-15T01:03:50.370Z,8.17
2019-05-15T01:04:50.289Z,8.09
2019-05-15T01:05:50.200Z,8.14
2019-05-15T01:06:52.744Z,8.20
2019-05-15T01:07:50.042Z,8.17
2019-05-15T01:08:49.952Z,8.14
2019-05-15T01:09:49.929Z,8.20
2019-05-15T01:10:49.785Z,8.29
2019-05-15T01:11:49.691Z,8.21
2019-05-15T01:12:49.679Z,8.34
2019-05-15T01:13:49.521Z,8.36
2019-05-15T01:14:49.441Z,8.40
2019-05-15T01:15:49.458Z,8.40
2019-05-15T01:16:49.274Z,8.34
2019-05-15T01:17:50.224Z,8.18
2019-05-15T01:18:49.270Z,8.32
2019-05-15T01:19:49.077Z,8.37
2019-05-15T01:20:49.445Z,8.36
2019-05-15T01:21:48.888Z,8.32
2019-05-15T01:22:48.772Z,8.32
2019-05-15T01:23:48.676Z,8.20
2019-05-15T01:24:48.724Z,8.20
2019-05-15T01:25:48.510Z,8.18
2019-05-15T01:26:49.254Z,8.18
2019-05-15T01:27:48.972Z,8.21
2019-05-15T01:28:49.494Z,8.17
2019-05-15T01:29:49.388Z,8.14
2019-05-15T01:30:48.589Z,8.07
2019-05-15T01:31:48.821Z,8.06
2019-05-15T01:32:48.535Z,8.07
2019-05-15T01:33:48.154Z,8.07
2019-05-15T01:34:49.073Z,8.12
2019-05-15T01:35:48.923Z,8.04
2019-05-15T01:36:48.876Z,8.09
2019-05-15T01:37:48.325Z,8.07
2019-05-15T01:38:48.038Z,7.96
2019-05-15T01:39:48.531Z,7.94
2019-05-15T01:40:48.494Z,7.95
2019-05-15T01:41:49.361Z,8.02
2019-05-15T01:42:47.081Z,7.95
2019-05-15T01:43:48.965Z,7.92
2019-05-15T01:44:48.466Z,7.95
2019-05-15T01:45:48.363Z,7.95
2019-05-15T01:46:48.426Z,7.96
2019-05-15T01:47:47.988Z,7.94
2019-05-15T01:48:49.119Z,7.91
2019-05-15T01:49:48.865Z,7.95
2019-05-15T01:50:46.403Z,7.91
2019-05-15T01:51:47.941Z,7.92
2019-05-15T01:52:47.949Z,7.92
2019-05-15T01:53:48.083Z,7.92
2019-05-15T01:54:46.056Z,7.82
2019-05-15T01:55:48.185Z,7.91
2019-05-15T01:56:45.873Z,7.79
2019-05-15T01:57:45.897Z,7.84
2019-05-15T01:58:45.716Z,7.82
2019-05-15T01:59:56.535Z,7.84
2019-05-15T02:00:45.540Z,7.81
2019-05-15T02:01:45.490Z,7.79
2019-05-15T02:02:45.380Z,7.86
2019-05-15T02:03:45.391Z,7.70
2019-05-15T02:04:45.206Z,7.73
2019-05-15T02:05:45.114Z,7.66
2019-05-15T02:06:45.099Z,7.70
2019-05-15T02:07:44.955Z,7.63
2019-05-15T02:08:44.859Z,7.63
2019-05-15T02:09:44.814Z,7.54
2019-05-15T02:10:44.696Z,7.50
2019-05-15T02:11:44.623Z,7.55
2019-05-15T02:12:44.534Z,7.48
2019-05-15T02:13:44.535Z,7.55
2019-05-15T02:14:44.350Z,7.58
2019-05-15T02:15:44.263Z,7.55
2019-05-15T02:16:48.201Z,7.55
2019-05-15T02:17:44.110Z,7.54
2019-05-15T02:18:44.009Z,7.37
2019-05-15T02:19:43.962Z,7.47
2019-05-15T02:20:43.843Z,7.44
2019-05-15T02:21:43.756Z,7.48
2019-05-15T02:22:43.714Z,7.51
2019-05-15T02:23:43.589Z,7.39
2019-05-15T02:24:43.503Z,7.36
2019-05-15T02:25:43.491Z,7.37
2019-05-15T02:26:43.334Z,7.23
2019-05-15T02:27:43.282Z,7.39
2019-05-15T02:28:43.204Z,7.42
2019-05-15T02:29:43.076Z,7.34
2019-05-15T02:30:42.988Z,7.42
2019-05-15T02:31:42.929Z,7.54
2019-05-15T02:32:42.817Z,7.55
2019-05-15T02:33:42.870Z,7.63
2019-05-15T02:34:42.653Z,7.57
2019-05-15T02:35:42.641Z,7.57
2019-05-15T02:36:42.482Z,7.63
2019-05-15T02:37:42.450Z,7.77
2019-05-15T02:38:42.325Z,7.84
2019-05-15T02:39:58.932Z,7.81
2019-05-15T02:40:42.138Z,7.82
2019-05-15T02:41:42.066Z,7.82
2019-05-15T02:42:41.969Z,7.88
2019-05-15T02:43:42.010Z,7.73
2019-05-15T02:44:41.804Z,7.81
2019-05-15T02:45:42.551Z,7.77
2019-05-15T02:46:41.697Z,7.84
2019-05-15T02:47:41.549Z,7.85
2019-05-15T02:48:41.480Z,7.88
2019-05-15T02:49:41.410Z,7.88
2019-05-15T02:50:41.297Z,7.81
2019-05-15T02:51:41.326Z,7.79
2019-05-15T02:52:45.121Z,7.79
2019-05-15T02:53:41.163Z,7.81
2019-05-15T02:54:40.986Z,7.81
2019-05-15T02:55:40.870Z,7.82
2019-05-15T02:56:40.843Z,7.73
2019-05-15T02:57:40.699Z,7.69
2019-05-15T02:58:40.632Z,7.60
2019-05-15T02:59:40.555Z,7.50
2019-05-15T03:00:47.341Z,7.55
2019-05-15T03:01:40.779Z,7.47
2019-05-15T03:02:41.437Z,7.44
2019-05-15T03:03:40.305Z,7.32
2019-05-15T03:04:40.348Z,7.34
2019-05-15T03:05:40.972Z,7.27
2019-05-15T03:06:39.993Z,7.15
2019-05-15T03:07:40.685Z,7.07
2019-05-15T03:08:40.305Z,7.07
2019-05-15T03:09:40.046Z,7.00
2019-05-15T03:10:40.803Z,6.96
2019-05-15T03:11:40.820Z,6.83
2019-05-15T03:12:40.596Z,6.75
2019-05-15T03:13:39.618Z,6.73
2019-05-15T03:14:40.059Z,6.61
2019-05-15T03:15:40.260Z,6.54
2019-05-15T03:16:39.551Z,6.58
2019-05-15T03:17:40.326Z,6.57
2019-05-15T03:18:39.662Z,6.53
2019-05-15T03:19:39.469Z,6.45
2019-05-15T03:20:39.156Z,6.39
2019-05-15T03:21:39.684Z,6.30
2019-05-15T03:22:40.100Z,6.28
2019-05-15T03:23:40.337Z,6.30
2019-05-15T03:24:39.597Z,6.28
2019-05-15T03:25:40.234Z,6.24
2019-05-15T03:26:39.456Z,6.10
2019-05-15T03:27:39.589Z,6.02
2019-05-15T03:28:39.318Z,5.96
2019-05-15T03:29:40.373Z,6.03
2019-05-15T03:31:06.504Z,6.02
2019-05-15T03:31:53.333Z,6.02
2019-05-15T03:32:50.758Z,6.06
2019-05-15T03:33:44.897Z,6.03
2019-05-15T03:34:46.192Z,6.02
2019-05-15T03:35:43.178Z,6.02
2019-05-15T03:36:37.374Z,5.99
2019-05-15T03:37:39.820Z,5.98
2019-05-15T03:38:39.322Z,6.01
2019-05-15T03:39:39.239Z,6.02
2019-05-15T03:40:39.746Z,6.03
2019-05-15T03:41:39.318Z,6.03
2019-05-15T03:42:39.486Z,5.98
2019-05-15T03:43:39.333Z,5.99
2019-05-15T03:44:39.241Z,5.96
2019-05-15T03:45:39.981Z,5.96
2019-05-15T03:46:39.611Z,5.95
2019-05-15T03:47:39.721Z,5.92
2019-05-15T03:48:39.781Z,5.85
2019-05-15T03:49:39.447Z,5.84
2019-05-15T03:50:39.670Z,5.87
2019-05-15T03:51:39.919Z,5.87
2019-05-15T03:52:39.062Z,5.77
2019-05-15T03:53:39.545Z,5.85
2019-05-15T03:54:38.954Z,5.87
2019-05-15T03:55:35.835Z,5.83
2019-05-15T03:56:39.034Z,5.77
2019-05-15T03:57:35.580Z,5.77
2019-05-15T03:58:35.577Z,5.69
2019-05-15T03:59:35.410Z,5.92
2019-05-15T04:00:35.325Z,5.99
2019-05-15T04:01:42.348Z,6.17
2019-05-15T04:02:35.156Z,6.20
2019-05-15T04:03:35.081Z,6.43
2019-05-15T04:04:34.980Z,6.35
2019-05-15T04:05:34.970Z,6.54
2019-05-15T04:06:34.816Z,6.60
2019-05-15T04:07:43.796Z,6.63
2019-05-15T04:08:34.653Z,6.73
2019-05-15T04:09:34.593Z,6.76
2019-05-15T04:10:34.480Z,6.73
2019-05-15T04:11:34.395Z,6.81
2019-05-15T04:12:34.303Z,6.79
2019-05-15T04:13:35.264Z,6.81
2019-05-15T04:14:34.130Z,6.81
2019-05-15T04:15:34.049Z,6.75
2019-05-15T04:16:33.963Z,6.79
2019-05-15T04:17:33.927Z,6.83
2019-05-15T04:18:33.786Z,6.83
2019-05-15T04:19:39.199Z,6.87
2019-05-15T04:20:33.628Z,6.78
2019-05-15T04:21:33.648Z,6.76
2019-05-15T04:22:33.448Z,6.79
2019-05-15T04:23:33.461Z,6.82
2019-05-15T04:24:33.306Z,6.81
2019-05-15T04:25:35.208Z,6.81
2019-05-15T04:26:33.101Z,6.81
2019-05-15T04:27:33.025Z,6.91
2019-05-15T04:28:32.931Z,6.87
2019-05-15T04:29:32.918Z,6.99
2019-05-15T04:30:32.759Z,7.01
2019-05-15T04:31:50.648Z,6.93
2019-05-15T04:32:32.590Z,7.01
2019-05-15T04:33:32.617Z,7.09
2019-05-15T04:34:32.437Z,7.12
2019-05-15T04:35:32.332Z,7.24
2019-05-15T04:36:32.331Z,7.26
2019-05-15T04:37:32.172Z,7.34
2019-05-15T04:38:32.083Z,7.41
2019-05-15T04:39:32.079Z,7.55
2019-05-15T04:40:31.914Z,7.60
2019-05-15T04:41:31.826Z,7.57
2019-05-15T04:42:31.752Z,7.62
2019-05-15T04:43:39.755Z,7.60
2019-05-15T04:44:31.590Z,7.69
2019-05-15T04:45:34.894Z,7.79
2019-05-15T04:46:31.412Z,7.79
2019-05-15T04:47:31.370Z,7.77
2019-05-15T04:48:31.245Z,7.84
2019-05-15T04:49:31.212Z,7.84
2019-05-15T04:50:31.079Z,7.89
2019-05-15T04:51:30.984Z,7.88
2019-05-15T04:52:30.997Z,7.95
2019-05-15T04:53:33.270Z,7.89
2019-05-15T04:54:30.747Z,7.94
2019-05-15T04:55:30.707Z,7.89
2019-05-15T04:56:30.566Z,7.91
2019-05-15T04:57:34.121Z,7.92
2019-05-15T04:58:30.396Z,7.86
2019-05-15T04:59:30.526Z,7.92
2019-05-15T05:00:30.236Z,7.99
2019-05-15T05:01:30.158Z,8.04
2019-05-15T05:02:32.170Z,8.09
2019-05-15T05:03:33.754Z,8.13
2019-05-15T05:04:29.904Z,8.24
2019-05-15T05:05:29.956Z,8.40
2019-05-15T05:06:29.722Z,8.58
2019-05-15T05:07:29.739Z,8.60
2019-05-15T05:08:29.560Z,8.60
2019-05-15T05:09:29.608Z,8.80
2019-05-15T05:10:29.387Z,8.89
2019-05-15T05:11:29.375Z,8.97
2019-05-15T05:12:31.235Z,9.00
2019-05-15T05:13:29.142Z,9.27
2019-05-15T05:14:29.058Z,9.41
2019-05-15T05:15:29.336Z,9.58
2019-05-15T05:16:29.517Z,9.62
2019-05-15T05:17:29.023Z,9.58
2019-05-15T05:18:29.851Z,9.52
2019-05-15T05:19:28.745Z,9.58
2019-05-15T05:20:28.866Z,9.65
2019-05-15T05:21:28.531Z,9.58
2019-05-15T05:22:28.392Z,9.53
2019-05-15T05:23:28.493Z,9.52
2019-05-15T05:24:28.232Z,9.65
2019-05-15T05:25:28.289Z,9.73
2019-05-15T05:26:29.358Z,9.81
2019-05-15T05:27:28.861Z,9.75
2019-05-15T05:28:28.898Z,9.70
2019-05-15T05:29:28.106Z,9.81
2019-05-15T05:30:29.293Z,9.88
2019-05-15T05:31:33.173Z,9.98
2019-05-15T05:32:34.633Z,9.98
2019-05-15T05:33:28.673Z,10.09
2019-05-15T05:34:28.349Z,9.96
2019-05-15T05:35:27.919Z,10.26
2019-05-15T05:36:27.928Z,10.26
2019-05-15T05:37:27.978Z,10.26
2019-05-15T05:38:28.191Z,10.42
2019-05-15T05:39:29.250Z,10.57
2019-05-15T05:40:29.137Z,10.54
2019-05-15T05:41:28.086Z,10.83
2019-05-15T05:42:29.017Z,10.73
2019-05-15T05:43:26.673Z,10.91
2019-05-15T05:44:28.944Z,10.90
2019-05-15T05:45:28.716Z,10.91
2019-05-15T05:46:28.047Z,11.08
2019-05-15T05:47:28.723Z,11.27
2019-05-15T05:48:26.278Z,11.35
2019-05-15T05:49:26.185Z,11.35
2019-05-15T05:50:28.713Z,11.30
2019-05-15T05:51:28.080Z,11.39
2019-05-15T05:52:27.938Z,11.35
2019-05-15T05:53:25.872Z,11.45
2019-05-15T05:54:25.786Z,11.36
2019-05-15T05:55:25.722Z,11.63
2019-05-15T05:56:25.625Z,11.69
2019-05-15T05:57:27.839Z,11.84
2019-05-15T05:58:25.463Z,11.60
2019-05-15T05:59:25.384Z,11.66
2019-05-15T06:00:25.320Z,11.78
2019-05-15T06:01:25.271Z,12.04
2019-05-15T06:02:25.141Z,12.03
2019-05-15T06:03:25.062Z,12.25
2019-05-15T06:04:24.980Z,12.41
2019-05-15T06:05:24.912Z,12.37
2019-05-15T06:06:24.828Z,12.33
2019-05-15T06:07:24.735Z,12.25
2019-05-15T06:08:24.654Z,12.26
2019-05-15T06:09:24.598Z,12.54
2019-05-15T06:10:24.512Z,12.56
2019-05-15T06:11:24.416Z,12.81
2019-05-15T06:12:24.354Z,13.17
2019-05-15T06:13:24.255Z,13.35
2019-05-15T06:14:24.183Z,13.46
2019-05-15T06:15:24.115Z,13.36
2019-05-15T06:16:24.030Z,13.48
2019-05-15T06:17:23.955Z,13.63
2019-05-15T06:18:23.871Z,13.47
2019-05-15T06:19:23.790Z,13.47
2019-05-15T06:20:23.701Z,13.55
2019-05-15T06:21:23.640Z,13.48
2019-05-15T06:22:23.543Z,13.43
2019-05-15T06:23:25.921Z,13.47
2019-05-15T06:24:23.377Z,13.90
2019-05-15T06:25:23.305Z,13.88
2019-05-15T06:26:23.237Z,14.02
2019-05-15T06:27:23.140Z,13.96
2019-05-15T06:28:23.063Z,13.72
2019-05-15T06:29:22.981Z,13.65
2019-05-15T06:30:27.431Z,13.43
2019-05-15T06:31:22.845Z,13.46
2019-05-15T06:32:22.743Z,13.16
2019-05-15T06:33:22.664Z,13.32
2019-05-15T06:34:22.588Z,13.61
2019-05-15T06:35:22.507Z,13.41
2019-05-15T06:36:22.457Z,13.44
2019-05-15T06:37:22.350Z,13.22
2019-05-15T06:38:22.276Z,13.36
2019-05-15T06:39:22.195Z,13.14
2019-05-15T06:40:22.105Z,13.29
2019-05-15T06:41:22.039Z,13.13
2019-05-15T06:42:21.952Z,13.25
2019-05-15T06:43:21.868Z,13.36
2019-05-15T06:44:21.788Z,13.48
2019-05-15T06:45:21.708Z,13.66
2019-05-15T06:46:21.656Z,13.80
2019-05-15T06:47:21.547Z,13.73
2019-05-15T06:48:21.473Z,13.32
2019-05-15T06:49:21.391Z,13.46
2019-05-15T06:50:21.312Z,13.24
2019-05-15T06:51:21.266Z,13.35
2019-05-15T06:52:21.158Z,13.53
2019-05-15T06:53:21.079Z,13.75
2019-05-15T06:54:21.000Z,14.09
2019-05-15T06:55:20.918Z,14.39
2019-05-15T06:56:20.847Z,13.80
2019-05-15T06:57:20.761Z,13.50
2019-05-15T06:58:20.682Z,13.75
2019-05-15T06:59:20.601Z,13.72
2019-05-15T07:00:20.520Z,13.73
2019-05-15T07:01:20.756Z,13.90
2019-05-15T07:02:20.359Z,14.13
2019-05-15T07:03:25.517Z,14.08
2019-05-15T07:04:20.204Z,13.62
2019-05-15T07:05:20.145Z,13.66
2019-05-15T07:06:20.059Z,13.90
2019-05-15T07:07:19.976Z,14.12
2019-05-15T07:08:19.907Z,14.02
2019-05-15T07:09:19.814Z,13.96
2019-05-15T07:10:19.756Z,13.96
2019-05-15T07:11:19.671Z,13.88
2019-05-15T07:12:19.574Z,14.16
2019-05-15T07:13:19.516Z,13.76
2019-05-15T07:14:19.421Z,13.71
2019-05-15T07:15:19.342Z,13.73
2019-05-15T07:16:19.269Z,13.59
2019-05-15T07:17:19.181Z,13.86
2019-05-15T07:18:19.888Z,14.06
2019-05-15T07:19:19.265Z,14.09
2019-05-15T07:20:18.936Z,13.96
2019-05-15T07:21:20.543Z,14.36
2019-05-15T07:22:18.781Z,14.53
2019-05-15T07:23:19.070Z,14.13
2019-05-15T07:24:18.639Z,13.69
2019-05-15T07:25:18.973Z,13.91
2019-05-15T07:26:18.482Z,13.75
2019-05-15T07:27:18.554Z,13.94
2019-05-15T07:28:18.505Z,14.19
2019-05-15T07:29:18.949Z,14.19
2019-05-15T07:30:18.744Z,14.09
2019-05-15T07:31:18.203Z,13.93
2019-05-15T07:32:19.265Z,13.98
2019-05-15T07:33:27.957Z,14.26
2019-05-15T07:34:18.783Z,14.53
2019-05-15T07:35:19.180Z,14.71
2019-05-15T07:36:19.225Z,14.90
2019-05-15T07:37:19.113Z,14.97
2019-05-15T07:38:18.275Z,14.57
2019-05-15T07:39:17.985Z,14.64
2019-05-15T07:40:19.414Z,14.52
2019-05-15T07:41:18.445Z,14.60
2019-05-15T07:42:18.451Z,14.61
2019-05-15T07:43:18.217Z,14.60
2019-05-15T07:44:18.897Z,14.39
2019-05-15T07:45:19.756Z,14.21
2019-05-15T07:46:18.444Z,14.38
2019-05-15T07:47:19.079Z,14.67
2019-05-15T07:48:18.733Z,14.66
2019-05-15T07:49:18.188Z,14.39
2019-05-15T07:50:16.599Z,14.85
2019-05-15T07:51:18.022Z,15.15
2019-05-15T07:52:19.179Z,15.49
2019-05-15T07:53:16.365Z,15.70
2019-05-15T07:54:18.210Z,14.74
2019-05-15T07:55:18.332Z,14.72
2019-05-15T07:56:18.053Z,14.94
2019-05-15T07:57:19.053Z,14.91
2019-05-15T07:58:15.980Z,15.05
2019-05-15T07:59:15.897Z,15.38
2019-05-15T08:00:18.546Z,15.49
2019-05-15T08:01:18.363Z,15.23
2019-05-15T08:02:15.679Z,14.74
2019-05-15T08:03:15.589Z,14.93
2019-05-15T08:04:26.201Z,15.13
2019-05-15T08:05:18.074Z,15.28
2019-05-15T08:06:17.843Z,15.38
2019-05-15T08:07:15.309Z,15.43
2019-05-15T08:08:15.209Z,15.88
2019-05-15T08:09:15.132Z,16.14
2019-05-15T08:10:15.066Z,16.44
2019-05-15T08:11:20.910Z,16.57
2019-05-15T08:12:14.918Z,15.88
2019-05-15T08:13:14.841Z,16.01
2019-05-15T08:14:14.753Z,15.85
2019-05-15T08:15:14.673Z,14.79
2019-05-15T08:16:14.617Z,14.80
2019-05-15T08:17:18.179Z,14.93
2019-05-15T08:18:14.462Z,15.25
2019-05-15T08:19:14.371Z,15.66
2019-05-15T08:20:14.314Z,15.81
2019-05-15T08:21:14.221Z,15.99
2019-05-15T08:22:15.212Z,16.06
2019-05-15T08:23:14.076Z,15.99
2019-05-15T08:24:13.999Z,15.86
2019-05-15T08:25:28.254Z,15.78
2019-05-15T08:26:13.860Z,15.76
2019-05-15T08:27:13.788Z,15.51
2019-05-15T08:28:13.697Z,15.43
2019-05-15T08:29:13.620Z,15.20
2019-05-15T08:30:13.548Z,15.30
2019-05-15T08:31:13.490Z,15.41
2019-05-15T08:32:13.407Z,15.30
2019-05-15T08:33:13.339Z,15.30
2019-05-15T08:34:16.296Z,15.22
2019-05-15T08:35:13.167Z,15.64
2019-05-15T08:36:13.096Z,15.76
2019-05-15T08:37:13.029Z,15.40
2019-05-15T08:38:14.297Z,15.77
2019-05-15T08:39:12.868Z,16.23
2019-05-15T08:40:12.788Z,16.72
2019-05-15T08:41:15.518Z,16.22
2019-05-15T08:42:12.673Z,15.93
2019-05-15T08:43:12.562Z,15.84
2019-05-15T08:44:12.503Z,15.78
2019-05-15T08:45:12.415Z,15.68
2019-05-15T08:46:12.349Z,16.25
2019-05-15T08:47:12.268Z,15.89
2019-05-15T08:48:12.231Z,15.80
2019-05-15T08:49:12.116Z,16.03
2019-05-15T08:50:12.059Z,16.37
2019-05-15T08:51:11.960Z,16.41
2019-05-15T08:52:11.896Z,15.77
2019-05-15T08:53:11.835Z,16.11
2019-05-15T08:54:11.740Z,16.34
2019-05-15T08:55:11.663Z,16.44
2019-05-15T08:56:14.703Z,15.99
2019-05-15T08:57:11.520Z,15.95
2019-05-15T08:58:14.051Z,16.45
2019-05-15T08:59:11.379Z,16.51
2019-05-15T09:00:11.298Z,16.60
2019-05-15T09:01:11.235Z,16.55
2019-05-15T09:02:11.153Z,17.00
2019-05-15T09:03:11.087Z,17.30
2019-05-15T09:04:26.116Z,17.58
2019-05-15T09:05:10.929Z,17.21
2019-05-15T09:06:10.853Z,16.80
2019-05-15T09:07:10.867Z,16.85
2019-05-15T09:08:10.723Z,17.02
2019-05-15T09:09:10.637Z,16.34
2019-05-15T09:10:10.560Z,16.54
2019-05-15T09:11:10.497Z,16.27
2019-05-15T09:12:10.408Z,16.62
2019-05-15T09:13:10.363Z,16.70
2019-05-15T09:14:10.313Z,17.10
2019-05-15T09:15:10.195Z,16.57
2019-05-15T09:16:10.122Z,16.48
2019-05-15T09:17:10.051Z,15.77
2019-05-15T09:18:15.945Z,15.67
2019-05-15T09:19:09.915Z,15.91
2019-05-15T09:20:09.825Z,15.99
2019-05-15T09:21:09.752Z,16.44
2019-05-15T09:22:09.683Z,16.33
2019-05-15T09:23:09.617Z,16.85
2019-05-15T09:24:09.714Z,16.91
2019-05-15T09:25:09.474Z,16.81
2019-05-15T09:26:09.489Z,17.49
2019-05-15T09:27:10.264Z,17.51
2019-05-15T09:28:09.264Z,17.66
2019-05-15T09:29:09.447Z,18.05
2019-05-15T09:30:09.097Z,17.74
2019-05-15T09:31:09.014Z,17.53
2019-05-15T09:32:12.430Z,17.39
2019-05-15T09:33:08.928Z,16.91
2019-05-15T09:34:09.229Z,16.59
2019-05-15T09:35:08.733Z,16.98
2019-05-15T09:36:09.155Z,17.40
2019-05-15T09:37:08.696Z,17.45
2019-05-15T09:38:08.736Z,16.98
2019-05-15T09:39:08.769Z,17.17
2019-05-15T09:40:09.065Z,17.46
2019-05-15T09:41:08.982Z,17.36
2019-05-15T09:42:08.524Z,17.43
2019-05-15T09:43:10.797Z,17.60
2019-05-15T09:44:08.126Z,17.66
2019-05-15T09:45:08.925Z,18.04
2019-05-15T09:46:10.283Z,18.20
2019-05-15T09:47:09.121Z,18.10
2019-05-15T09:48:09.766Z,18.11
2019-05-15T09:49:08.838Z,17.28
2019-05-15T09:50:08.507Z,17.38
2019-05-15T09:51:09.271Z,17.33
2019-05-15T09:52:09.011Z,17.71
2019-05-15T09:53:09.304Z,17.71
2019-05-15T09:54:08.070Z,17.05
2019-05-15T09:55:08.612Z,16.59
2019-05-15T09:56:08.135Z,16.85
2019-05-15T09:57:10.592Z,16.78
2019-05-15T09:58:08.291Z,16.63
2019-05-15T09:59:08.900Z,16.60
2019-05-15T10:00:09.009Z,17.17
2019-05-15T10:01:08.426Z,17.15
2019-05-15T10:02:09.087Z,17.36
2019-05-15T10:03:09.344Z,17.02
2019-05-15T10:04:08.359Z,17.02
2019-05-15T10:05:10.983Z,17.14
2019-05-15T10:06:08.135Z,17.40
2019-05-15T10:07:08.199Z,17.47
2019-05-15T10:08:08.514Z,17.73
2019-05-15T10:09:08.841Z,18.04
2019-05-15T10:10:08.511Z,17.70
2019-05-15T10:11:08.850Z,17.49
2019-05-15T10:12:08.351Z,17.17
2019-05-15T10:13:06.000Z,17.00
2019-05-15T10:14:05.922Z,17.27
2019-05-15T10:15:10.485Z,17.17
2019-05-15T10:16:08.222Z,17.35
2019-05-15T10:17:05.705Z,17.51
2019-05-15T10:18:05.653Z,17.71
2019-05-15T10:19:05.564Z,17.63
2019-05-15T10:20:05.500Z,17.39
2019-05-15T10:21:05.416Z,17.25
2019-05-15T10:22:05.365Z,16.92
2019-05-15T10:23:05.275Z,16.88
2019-05-15T10:24:05.204Z,16.57
2019-05-15T10:25:05.141Z,16.85
2019-05-15T10:26:05.071Z,16.85
2019-05-15T10:27:04.981Z,16.90
2019-05-15T10:28:04.898Z,16.84
2019-05-15T10:29:04.846Z,17.02
2019-05-15T10:30:04.765Z,16.91
2019-05-15T10:31:04.686Z,16.60
2019-05-15T10:32:04.608Z,16.75
2019-05-15T10:33:04.644Z,16.60
2019-05-15T10:34:04.479Z,16.87
2019-05-15T10:35:04.397Z,17.12
2019-05-15T10:36:04.318Z,17.21
2019-05-15T10:37:04.255Z,16.92
2019-05-15T10:38:04.178Z,17.38
2019-05-15T10:39:04.165Z,17.27
2019-05-15T10:40:04.032Z,17.05
2019-05-15T10:41:09.801Z,17.40
2019-05-15T10:42:04.207Z,17.51
2019-05-15T10:43:03.817Z,17.43
2019-05-15T10:44:03.761Z,17.40
2019-05-15T10:45:03.667Z,17.05
2019-05-15T10:46:03.598Z,16.90
2019-05-15T10:47:03.547Z,16.90
2019-05-15T10:48:03.469Z,17.07
2019-05-15T10:49:03.410Z,16.91
2019-05-15T10:50:03.308Z,16.85
2019-05-15T10:51:07.252Z,16.75
2019-05-15T10:52:03.178Z,16.99
2019-05-15T10:53:03.098Z,17.39
2019-05-15T10:54:03.031Z,17.55
2019-05-15T10:55:02.949Z,17.58
2019-05-15T10:56:02.912Z,17.12
2019-05-15T10:57:05.236Z,17.09
2019-05-15T10:58:02.728Z,17.22
2019-05-15T10:59:02.672Z,17.46
2019-05-15T11:00:02.582Z,17.40
2019-05-15T11:01:03.406Z,17.74
2019-05-15T11:02:02.437Z,17.45
2019-05-15T11:03:02.368Z,17.65
2019-05-15T11:04:02.309Z,17.51
2019-05-15T11:05:02.235Z,16.82
2019-05-15T11:06:02.143Z,17.00
2019-05-15T11:07:02.084Z,17.17
2019-05-15T11:08:01.998Z,17.32
2019-05-15T11:09:01.945Z,16.99
2019-05-15T11:10:01.860Z,17.32
2019-05-15T11:11:01.780Z,17.58
2019-05-15T11:12:01.715Z,17.06
2019-05-15T11:13:01.648Z,17.00
2019-05-15T11:14:01.578Z,17.03
2019-05-15T11:15:01.501Z,17.18
2019-05-15T11:16:01.432Z,17.36
2019-05-15T11:17:01.353Z,17.73
2019-05-15T11:18:01.281Z,18.20
2019-05-15T11:19:01.240Z,17.94
2019-05-15T11:20:01.129Z,17.95
2019-05-15T11:21:01.068Z,18.11
2019-05-15T11:22:00.987Z,17.95
2019-05-15T11:23:00.911Z,17.81
2019-05-15T11:24:00.856Z,17.80
2019-05-15T11:25:00.771Z,18.11
2019-05-15T11:26:00.694Z,18.36
2019-05-15T11:27:00.702Z,18.46
2019-05-15T11:28:00.558Z,18.53
2019-05-15T11:29:00.498Z,18.65
2019-05-15T11:30:00.414Z,18.62
2019-05-15T11:31:00.348Z,17.91
2019-05-15T11:32:00.269Z,18.19
2019-05-15T11:33:00.191Z,18.09
2019-05-15T11:34:00.139Z,17.53
2019-05-15T11:35:03.630Z,17.54
2019-05-15T11:36:05.581Z,17.80
2019-05-15T11:36:59.908Z,17.66
2019-05-15T11:37:59.842Z,17.55
2019-05-15T11:38:59.784Z,17.15
2019-05-15T11:39:59.697Z,17.17
2019-05-15T11:40:59.616Z,17.66
2019-05-15T11:41:59.554Z,17.66
2019-05-15T11:42:59.478Z,17.60
2019-05-15T11:43:59.421Z,17.91
2019-05-15T11:44:59.334Z,18.20
2019-05-15T11:45:59.273Z,18.50
2019-05-15T11:46:59.195Z,18.23
2019-05-15T11:48:00.982Z,18.09
2019-05-15T11:48:59.178Z,18.25
2019-05-15T11:49:58.990Z,18.32
2019-05-15T11:50:58.897Z,18.46
2019-05-15T11:52:00.646Z,18.60
2019-05-15T11:52:58.760Z,18.34
2019-05-15T11:53:58.907Z,18.09
2019-05-15T11:54:59.002Z,17.94
2019-05-15T11:55:59.858Z,17.89
2019-05-15T11:56:59.633Z,17.68
2019-05-15T11:57:59.432Z,17.60
2019-05-15T11:58:58.322Z,17.68
2019-05-15T11:59:59.580Z,17.33
2019-05-15T12:00:58.186Z,17.53
2019-05-15T12:01:58.156Z,17.81
2019-05-15T12:02:58.558Z,17.70
2019-05-15T12:03:58.545Z,17.68
2019-05-15T12:04:58.405Z,17.73
2019-05-15T12:05:59.660Z,17.68
2019-05-15T12:07:02.141Z,17.73
2019-05-15T12:07:57.949Z,17.79
2019-05-15T12:08:59.147Z,17.65
2019-05-15T12:09:58.106Z,17.96
2019-05-15T12:10:59.165Z,18.05
2019-05-15T12:11:57.395Z,17.96
2019-05-15T12:12:57.325Z,18.05
2019-05-15T12:13:57.279Z,17.63
2019-05-15T12:14:57.185Z,17.63
2019-05-15T12:15:58.931Z,17.79
2019-05-15T12:17:07.216Z,18.29
2019-05-15T12:17:59.016Z,18.28
2019-05-15T12:19:08.423Z,18.16
2019-05-15T12:20:04.630Z,17.87
2019-05-15T12:20:58.828Z,18.32
2019-05-15T12:21:59.621Z,18.51
2019-05-15T12:22:59.253Z,18.96
2019-05-15T12:23:58.955Z,19.28
2019-05-15T12:25:00.143Z,19.12
2019-05-15T12:25:59.316Z,19.09
2019-05-15T12:26:58.102Z,19.17
2019-05-15T12:27:56.243Z,19.07
2019-05-15T12:28:59.032Z,18.60
2019-05-15T12:29:56.112Z,18.29
2019-05-15T12:30:59.331Z,18.25
2019-05-15T12:31:58.797Z,18.42
2019-05-15T12:32:55.880Z,18.04
2019-05-15T12:33:58.147Z,18.44
2019-05-15T12:34:59.758Z,18.79
2019-05-15T12:35:55.663Z,19.05
2019-05-15T12:36:57.973Z,18.91
2019-05-15T12:37:55.524Z,19.06
2019-05-15T12:38:55.445Z,18.97
2019-05-15T12:59:53.989Z,19.60
2019-05-15T13:00:53.874Z,19.68
2019-05-15T13:01:53.796Z,19.53
2019-05-15T13:02:53.738Z,19.47
2019-05-15T13:03:53.646Z,19.46
2019-05-15T13:04:53.591Z,18.96
2019-05-15T13:05:53.512Z,18.44
2019-05-15T13:07:11.650Z,18.38
2019-05-15T13:07:53.366Z,18.41
2019-05-15T13:08:53.301Z,18.47
2019-05-15T13:09:53.229Z,18.66
2019-05-15T13:10:53.162Z,18.64
2019-05-15T13:11:53.071Z,18.71
2019-05-15T13:13:00.996Z,18.68
2019-05-15T13:13:52.937Z,18.60
2019-05-15T13:14:52.873Z,18.69
2019-05-15T13:15:52.789Z,18.53
2019-05-15T13:16:52.710Z,18.59
2019-05-15T13:17:53.897Z,18.68
2019-05-15T13:18:52.573Z,18.69
2019-05-15T13:19:52.518Z,18.35
2019-05-15T13:20:52.434Z,18.50
2019-05-15T13:21:52.354Z,18.51
2019-05-15T13:22:52.283Z,18.62